createdAt,value
2019-01-20T00:00:30.666Z,1005.18
2019-01-20T00:01:30.802Z,1005.15
2019-01-20T00:02:30.674Z,1005.17
2019-01-20T00:03:30.742Z,1005.17
2019-01-20T00:04:30.513Z,1005.17
2019-01-20T00:05:30.455Z,1005.16
2019-01-20T00:06:30.427Z,1005.17
2019-01-20T00:07:30.379Z,1005.18
2019-01-20T00:08:30.330Z,1005.18
2019-01-20T00:09:30.304Z,1005.13
2019-01-20T00:10:30.254Z,1005.15
2019-01-20T00:11:30.208Z,1005.15
2019-01-20T00:12:30.173Z,1005.15
2019-01-20T00:13:30.132Z,1005.16
2019-01-20T00:14:30.094Z,1005.15
2019-01-20T00:15:30.047Z,1005.13
2019-01-20T00:16:30.018Z,1005.11
2019-01-20T00:17:29.964Z,1005.16
2019-01-20T00:18:29.946Z,1005.13
2019-01-20T00:19:29.890Z,1005.11
2019-01-20T00:20:29.849Z,1005.13
2019-01-20T00:21:29.815Z,1005.11
2019-01-20T00:22:29.770Z,1005.09
2019-01-20T00:23:29.727Z,1005.11
2019-01-20T00:24:29.700Z,1005.15
2019-01-20T00:25:29.649Z,1005.13
2019-01-20T00:26:29.608Z,1005.12
2019-01-20T00:27:29.570Z,1005.17
2019-01-20T00:28:29.537Z,1005.14
2019-01-20T00:29:29.492Z,1005.14
2019-01-20T00:30:29.445Z,1005.08
2019-01-20T00:31:29.405Z,1005.11
2019-01-20T00:32:29.363Z,1005.12
2019-01-20T00:33:29.319Z,1005.09
2019-01-20T00:34:29.305Z,1005.06
2019-01-20T00:35:29.245Z,1005.10
2019-01-20T00:36:29.221Z,1005.06
2019-01-20T00:37:29.163Z,1005.03
2019-01-20T00:38:29.134Z,1005.05
2019-01-20T00:39:29.084Z,1005.06
2019-01-20T00:40:29.080Z,1005.07
2019-01-20T00:41:29.021Z,1005.07
2019-01-20T00:42:28.966Z,1005.08
2019-01-20T00:43:28.920Z,1005.08
2019-01-20T00:44:28.874Z,1005.09
2019-01-20T00:45:28.838Z,1005.06
2019-01-20T00:46:28.795Z,1005.11
2019-01-20T00:47:28.750Z,1005.13
2019-01-20T00:48:28.720Z,1005.13
2019-01-20T00:49:28.680Z,1005.13
2019-01-20T00:50:28.639Z,1005.14
2019-01-20T00:51:28.600Z,1005.12
2019-01-20T00:52:28.552Z,1005.13
2019-01-20T00:53:28.512Z,1005.11
2019-01-20T00:54:28.475Z,1005.12
2019-01-20T00:55:28.435Z,1005.14
2019-01-20T00:56:28.386Z,1005.14
2019-01-20T00:57:28.357Z,1005.13
2019-01-20T00:58:28.310Z,1005.08
2019-01-20T00:59:28.269Z,1005.11
2019-01-20T01:00:28.228Z,1005.11
2019-01-20T01:01:28.204Z,1005.12
2019-01-20T01:02:28.151Z,1005.09
2019-01-20T01:03:28.115Z,1005.13
2019-01-20T01:04:28.071Z,1005.10
2019-01-20T01:05:28.026Z,1005.09
2019-01-20T01:06:27.984Z,1005.10
2019-01-20T01:07:27.946Z,1005.08
2019-01-20T01:08:27.910Z,1005.08
2019-01-20T01:09:27.857Z,1005.09
2019-01-20T01:10:27.820Z,1005.10
2019-01-20T01:11:31.838Z,1005.13
2019-01-20T01:12:27.735Z,1005.11
2019-01-20T01:13:27.695Z,1005.09
2019-01-20T01:14:27.657Z,1005.13
2019-01-20T01:15:27.622Z,1005.11
2019-01-20T01:16:27.575Z,1005.15
2019-01-20T01:17:27.534Z,1005.16
2019-01-20T01:18:27.501Z,1005.14
2019-01-20T01:19:27.458Z,1005.16
2019-01-20T01:20:27.411Z,1005.14
2019-01-20T01:21:27.377Z,1005.17
2019-01-20T01:22:27.333Z,1005.17
2019-01-20T01:23:27.292Z,1005.16
2019-01-20T01:24:27.256Z,1005.16
2019-01-20T01:25:27.211Z,1005.15
2019-01-20T01:26:27.166Z,1005.15
2019-01-20T01:27:27.127Z,1005.12
2019-01-20T01:28:27.092Z,1005.14
2019-01-20T01:29:27.052Z,1005.13
2019-01-20T01:30:26.998Z,1005.11
2019-01-20T01:31:26.958Z,1005.10
2019-01-20T01:32:26.923Z,1005.12
2019-01-20T01:33:26.886Z,1005.12
2019-01-20T01:34:26.851Z,1005.18
2019-01-20T01:35:26.812Z,1005.18
2019-01-20T01:36:26.762Z,1005.19
2019-01-20T01:37:26.718Z,1005.17
2019-01-20T01:38:26.683Z,1005.16
2019-01-20T01:39:26.644Z,1005.16
2019-01-20T01:40:26.599Z,1005.17
2019-01-20T01:41:26.559Z,1005.15
2019-01-20T01:42:26.524Z,1005.14
2019-01-20T01:43:26.483Z,1005.15
2019-01-20T01:44:26.447Z,1005.09
2019-01-20T01:45:26.402Z,1005.11
2019-01-20T01:46:26.358Z,1005.12
2019-01-20T01:47:26.312Z,1005.12
2019-01-20T01:48:26.272Z,1005.12
2019-01-20T01:49:26.241Z,1005.13
2019-01-20T01:50:26.193Z,1005.16
2019-01-20T01:51:26.143Z,1005.14
2019-01-20T01:52:26.114Z,1005.15
2019-01-20T01:53:26.082Z,1005.13
2019-01-20T01:54:26.049Z,1005.16
2019-01-20T01:55:25.988Z,1005.15
2019-01-20T01:56:25.948Z,1005.14
2019-01-20T01:57:25.907Z,1005.12
2019-01-20T01:58:25.867Z,1005.14
2019-01-20T01:59:25.834Z,1005.14
2019-01-20T02:00:25.789Z,1005.13
2019-01-20T02:01:25.739Z,1005.17
2019-01-20T02:02:25.709Z,1005.13
2019-01-20T02:03:25.664Z,1005.16
2019-01-20T02:04:25.620Z,1005.19
2019-01-20T02:05:25.590Z,1005.17
2019-01-20T02:06:25.546Z,1005.15
2019-01-20T02:07:25.503Z,1005.18
2019-01-20T02:08:25.464Z,1005.17
2019-01-20T02:09:25.418Z,1005.12
2019-01-20T02:10:25.374Z,1005.11
2019-01-20T02:11:25.338Z,1005.15
2019-01-20T02:12:25.294Z,1005.12
2019-01-20T02:13:25.254Z,1005.16
2019-01-20T02:14:25.209Z,1005.13
2019-01-20T02:15:25.174Z,1005.14
2019-01-20T02:16:25.135Z,1005.13
2019-01-20T02:17:25.090Z,1005.11
2019-01-20T02:18:25.049Z,1005.13
2019-01-20T02:19:25.082Z,1005.17
2019-01-20T02:20:24.964Z,1005.18
2019-01-20T02:21:24.930Z,1005.21
2019-01-20T02:22:24.889Z,1005.22
2019-01-20T02:23:24.853Z,1005.23
2019-01-20T02:24:24.810Z,1005.25
2019-01-20T02:25:24.765Z,1005.25
2019-01-20T02:26:24.738Z,1005.27
2019-01-20T02:27:24.687Z,1005.29
2019-01-20T02:28:24.639Z,1005.29
2019-01-20T02:29:24.609Z,1005.27
2019-01-20T02:30:24.565Z,1005.31
2019-01-20T02:31:24.521Z,1005.28
2019-01-20T02:32:24.479Z,1005.32
2019-01-20T02:33:24.438Z,1005.33
2019-01-20T02:34:24.400Z,1005.33
2019-01-20T02:35:24.362Z,1005.33
2019-01-20T02:36:24.315Z,1005.37
2019-01-20T02:37:24.269Z,1005.40
2019-01-20T02:38:24.234Z,1005.39
2019-01-20T02:39:24.202Z,1005.37
2019-01-20T02:40:24.161Z,1005.38
2019-01-20T02:41:24.109Z,1005.34
2019-01-20T02:42:24.070Z,1005.36
2019-01-20T02:43:24.027Z,1005.39
2019-01-20T02:44:24.013Z,1005.36
2019-01-20T02:45:23.948Z,1005.38
2019-01-20T02:46:23.912Z,1005.37
2019-01-20T02:47:23.863Z,1005.34
2019-01-20T02:48:23.821Z,1005.32
2019-01-20T02:49:23.781Z,1005.36
2019-01-20T02:50:23.747Z,1005.33
2019-01-20T02:51:23.700Z,1005.29
2019-01-20T02:52:23.669Z,1005.27
2019-01-20T02:53:23.627Z,1005.26
2019-01-20T02:54:23.578Z,1005.26
2019-01-20T02:55:23.536Z,1005.24
2019-01-20T02:56:23.495Z,1005.28
2019-01-20T02:57:23.450Z,1005.27
2019-01-20T02:58:23.417Z,1005.32
2019-01-20T02:59:23.381Z,1005.27
2019-01-20T03:00:23.331Z,1005.31
2019-01-20T03:01:23.306Z,1005.31
2019-01-20T03:02:23.251Z,1005.28
2019-01-20T03:03:23.215Z,1005.35
2019-01-20T03:04:23.166Z,1005.36
2019-01-20T03:05:23.127Z,1005.36
2019-01-20T03:06:23.089Z,1005.34
2019-01-20T03:07:23.043Z,1005.35
2019-01-20T03:08:23.011Z,1005.39
2019-01-20T03:09:22.963Z,1005.37
2019-01-20T03:10:22.923Z,1005.37
2019-01-20T03:11:22.882Z,1005.39
2019-01-20T03:12:22.838Z,1005.38
2019-01-20T03:13:22.803Z,1005.36
2019-01-20T03:14:22.762Z,1005.35
2019-01-20T03:15:22.714Z,1005.35
2019-01-20T03:16:22.674Z,1005.33
2019-01-20T03:17:22.642Z,1005.33
2019-01-20T03:18:22.591Z,1005.35
2019-01-20T03:19:22.558Z,1005.30
2019-01-20T03:20:22.515Z,1005.31
2019-01-20T03:21:22.466Z,1005.34
2019-01-20T03:22:22.431Z,1005.31
2019-01-20T03:23:22.387Z,1005.31
2019-01-20T03:24:22.341Z,1005.33
2019-01-20T03:25:22.310Z,1005.35
2019-01-20T03:26:22.264Z,1005.35
2019-01-20T03:27:22.224Z,1005.37
2019-01-20T03:28:22.183Z,1005.37
2019-01-20T03:29:22.154Z,1005.39
2019-01-20T03:30:22.105Z,1005.39
2019-01-20T03:31:22.069Z,1005.40
2019-01-20T03:32:22.019Z,1005.36
2019-01-20T03:33:21.980Z,1005.36
2019-01-20T03:34:21.934Z,1005.39
2019-01-20T03:35:21.893Z,1005.36
2019-01-20T03:36:21.862Z,1005.38
2019-01-20T03:37:21.813Z,1005.36
2019-01-20T03:38:21.778Z,1005.34
2019-01-20T03:39:21.739Z,1005.37
2019-01-20T03:40:21.689Z,1005.36
2019-01-20T03:41:21.649Z,1005.35
2019-01-20T03:42:21.613Z,1005.30
2019-01-20T03:43:21.570Z,1005.34
2019-01-20T03:44:21.529Z,1005.32
2019-01-20T03:45:21.485Z,1005.31
2019-01-20T03:46:21.438Z,1005.31
2019-01-20T03:47:21.405Z,1005.28
2019-01-20T03:48:21.367Z,1005.28
2019-01-20T03:49:21.312Z,1005.26
2019-01-20T03:50:21.283Z,1005.25
2019-01-20T03:51:21.239Z,1005.23
2019-01-20T03:52:21.199Z,1005.28
2019-01-20T03:53:21.157Z,1005.24
2019-01-20T03:54:21.119Z,1005.26
2019-01-20T03:55:21.081Z,1005.26
2019-01-20T03:56:21.030Z,1005.24
2019-01-20T03:57:20.985Z,1005.28
2019-01-20T03:58:20.944Z,1005.30
2019-01-20T03:59:20.907Z,1005.31
2019-01-20T04:00:20.868Z,1005.33
2019-01-20T04:01:20.814Z,1005.30
2019-01-20T04:02:20.785Z,1005.31
2019-01-20T04:03:20.750Z,1005.30
2019-01-20T04:04:20.705Z,1005.34
2019-01-20T04:05:20.665Z,1005.31
2019-01-20T04:06:20.626Z,1005.29
2019-01-20T04:07:20.584Z,1005.30
2019-01-20T04:08:20.534Z,1005.29
2019-01-20T04:09:20.497Z,1005.30
2019-01-20T04:10:20.459Z,1005.27
2019-01-20T04:11:20.411Z,1005.32
2019-01-20T04:12:21.055Z,1005.27
2019-01-20T04:13:20.326Z,1005.23
2019-01-20T04:14:20.290Z,1005.28
2019-01-20T04:15:20.244Z,1005.25
2019-01-20T04:16:20.200Z,1005.27
2019-01-20T04:17:20.163Z,1005.30
2019-01-20T04:18:20.137Z,1005.31
2019-01-20T04:19:20.079Z,1005.27
2019-01-20T04:20:20.042Z,1005.28
2019-01-20T04:21:20.001Z,1005.30
2019-01-20T04:22:19.962Z,1005.27
2019-01-20T04:23:19.922Z,1005.27
2019-01-20T04:24:19.879Z,1005.26
2019-01-20T04:25:19.840Z,1005.26
2019-01-20T04:26:19.787Z,1005.24
2019-01-20T04:27:19.755Z,1005.23
2019-01-20T04:28:19.718Z,1005.20
2019-01-20T04:29:19.671Z,1005.23
2019-01-20T04:30:19.626Z,1005.20
2019-01-20T04:31:19.590Z,1005.22
2019-01-20T04:32:19.540Z,1005.21
2019-01-20T04:33:19.512Z,1005.24
2019-01-20T04:34:19.465Z,1005.21
2019-01-20T04:35:19.438Z,1005.25
2019-01-20T04:36:19.381Z,1005.21
2019-01-20T04:37:19.336Z,1005.24
2019-01-20T04:38:19.296Z,1005.24
2019-01-20T04:39:19.257Z,1005.27
2019-01-20T04:40:19.217Z,1005.26
2019-01-20T04:41:19.171Z,1005.28
2019-01-20T04:42:19.140Z,1005.26
2019-01-20T04:43:19.088Z,1005.27
2019-01-20T04:44:19.038Z,1005.31
2019-01-20T04:45:18.997Z,1005.27
2019-01-20T04:46:18.976Z,1005.31
2019-01-20T04:47:18.926Z,1005.22
2019-01-20T04:48:18.885Z,1005.24
2019-01-20T04:49:18.835Z,1005.25
2019-01-20T04:50:18.797Z,1005.21
2019-01-20T04:51:18.766Z,1005.21
2019-01-20T04:52:19.632Z,1005.22
2019-01-20T04:53:18.676Z,1005.22
2019-01-20T04:54:18.631Z,1005.23
2019-01-20T04:55:18.598Z,1005.26
2019-01-20T04:56:18.546Z,1005.26
2019-01-20T04:57:18.510Z,1005.26
2019-01-20T04:58:18.467Z,1005.26
2019-01-20T04:59:18.428Z,1005.26
2019-01-20T05:00:18.383Z,1005.27
2019-01-20T05:01:18.349Z,1005.30
2019-01-20T05:02:18.297Z,1005.32
2019-01-20T05:03:18.257Z,1005.27
2019-01-20T05:04:18.217Z,1005.29
2019-01-20T05:05:18.172Z,1005.28
2019-01-20T05:06:18.132Z,1005.28
2019-01-20T05:07:18.097Z,1005.33
2019-01-20T05:08:18.049Z,1005.34
2019-01-20T05:09:18.006Z,1005.34
2019-01-20T05:10:17.971Z,1005.35
2019-01-20T05:11:17.931Z,1005.30
2019-01-20T05:12:17.899Z,1005.32
2019-01-20T05:13:17.849Z,1005.32
2019-01-20T05:14:17.804Z,1005.33
2019-01-20T05:15:17.762Z,1005.32
2019-01-20T05:16:17.717Z,1005.36
2019-01-20T05:17:17.678Z,1005.36
2019-01-20T05:18:17.644Z,1005.38
2019-01-20T05:19:17.592Z,1005.41
2019-01-20T05:20:17.555Z,1005.42
2019-01-20T05:21:17.523Z,1005.43
2019-01-20T05:22:17.479Z,1005.42
2019-01-20T05:23:17.430Z,1005.46
2019-01-20T05:24:17.392Z,1005.44
2019-01-20T05:25:17.345Z,1005.47
2019-01-20T05:26:17.314Z,1005.47
2019-01-20T05:27:17.272Z,1005.44
2019-01-20T05:28:17.223Z,1005.43
2019-01-20T05:29:17.193Z,1005.41
2019-01-20T05:30:17.138Z,1005.42
2019-01-20T05:31:17.104Z,1005.40
2019-01-20T05:32:17.067Z,1005.39
2019-01-20T05:33:17.015Z,1005.40
2019-01-20T05:34:16.974Z,1005.39
2019-01-20T05:35:16.935Z,1005.41
2019-01-20T05:36:16.887Z,1005.41
2019-01-20T05:37:16.850Z,1005.41
2019-01-20T05:38:16.818Z,1005.43
2019-01-20T05:39:16.773Z,1005.40
2019-01-20T05:40:17.360Z,1005.43
2019-01-20T05:41:16.685Z,1005.46
2019-01-20T05:42:16.640Z,1005.47
2019-01-20T05:43:16.607Z,1005.48
2019-01-20T05:44:16.578Z,1005.45
2019-01-20T05:45:16.527Z,1005.45
2019-01-20T05:46:16.483Z,1005.46
2019-01-20T05:47:16.428Z,1005.46
2019-01-20T05:48:16.394Z,1005.48
2019-01-20T05:49:16.354Z,1005.49
2019-01-20T05:50:16.314Z,1005.49
2019-01-20T05:51:16.269Z,1005.50
2019-01-20T05:52:16.230Z,1005.51
2019-01-20T05:53:16.189Z,1005.54
2019-01-20T05:54:16.146Z,1005.55
2019-01-20T05:55:16.109Z,1005.52
2019-01-20T05:56:16.064Z,1005.54
2019-01-20T05:57:16.020Z,1005.55
2019-01-20T05:58:15.985Z,1005.55
2019-01-20T05:59:15.939Z,1005.58
2019-01-20T06:00:15.890Z,1005.61
2019-01-20T06:01:15.856Z,1005.60
2019-01-20T06:02:15.813Z,1005.58
2019-01-20T06:03:15.778Z,1005.56
2019-01-20T06:04:15.734Z,1005.60
2019-01-20T06:05:15.695Z,1005.53
2019-01-20T06:06:15.641Z,1005.59
2019-01-20T06:07:15.611Z,1005.58
2019-01-20T06:08:15.560Z,1005.60
2019-01-20T06:09:15.516Z,1005.59
2019-01-20T06:10:15.475Z,1005.64
2019-01-20T06:11:15.436Z,1005.61
2019-01-20T06:12:15.394Z,1005.61
2019-01-20T06:13:15.362Z,1005.63
2019-01-20T06:14:15.310Z,1005.63
2019-01-20T06:15:15.294Z,1005.67
2019-01-20T06:16:15.228Z,1005.71
2019-01-20T06:17:15.192Z,1005.73
2019-01-20T06:18:15.143Z,1005.72
2019-01-20T06:19:15.107Z,1005.72
2019-01-20T06:20:15.057Z,1005.70
2019-01-20T06:21:15.025Z,1005.74
2019-01-20T06:22:14.976Z,1005.75
2019-01-20T06:23:14.935Z,1005.79
2019-01-20T06:24:14.900Z,1005.77
2019-01-20T06:25:14.856Z,1005.81
2019-01-20T06:26:14.837Z,1005.81
2019-01-20T06:27:14.774Z,1005.83
2019-01-20T06:28:14.727Z,1005.80
2019-01-20T06:29:14.696Z,1005.81
2019-01-20T06:30:14.647Z,1005.82
2019-01-20T06:31:14.603Z,1005.80
2019-01-20T06:32:14.566Z,1005.81
2019-01-20T06:33:14.513Z,1005.85
2019-01-20T06:34:14.477Z,1005.82
2019-01-20T06:35:14.444Z,1005.83
2019-01-20T06:36:14.405Z,1005.84
2019-01-20T06:37:14.358Z,1005.83
2019-01-20T06:38:14.317Z,1005.84
2019-01-20T06:39:14.275Z,1005.86
2019-01-20T06:40:14.236Z,1005.89
2019-01-20T06:41:14.192Z,1005.90
2019-01-20T06:42:14.142Z,1005.91
2019-01-20T06:43:14.108Z,1005.91
2019-01-20T06:44:14.067Z,1005.95
2019-01-20T06:45:14.020Z,1005.95
2019-01-20T06:46:13.973Z,1005.96
2019-01-20T06:47:13.934Z,1005.97
2019-01-20T06:48:13.903Z,1005.98
2019-01-20T06:49:13.856Z,1005.97
2019-01-20T06:50:13.822Z,1005.98
2019-01-20T06:51:13.778Z,1006.03
2019-01-20T06:52:13.731Z,1006.05
2019-01-20T06:53:13.683Z,1006.06
2019-01-20T06:54:13.641Z,1006.04
2019-01-20T06:55:13.602Z,1006.08
2019-01-20T06:56:13.564Z,1006.08
2019-01-20T06:57:13.517Z,1006.08
2019-01-20T06:58:13.477Z,1006.11
2019-01-20T06:59:13.442Z,1006.08
2019-01-20T07:00:13.402Z,1006.10
2019-01-20T07:01:13.358Z,1006.09
2019-01-20T07:02:13.316Z,1006.09
2019-01-20T07:03:13.279Z,1006.08
2019-01-20T07:04:13.226Z,1006.10
2019-01-20T07:05:13.193Z,1006.10
2019-01-20T07:06:13.139Z,1006.14
2019-01-20T07:07:13.104Z,1006.16
2019-01-20T07:08:13.065Z,1006.15
2019-01-20T07:09:13.027Z,1006.16
2019-01-20T07:10:12.987Z,1006.18
2019-01-20T07:11:12.937Z,1006.20
2019-01-20T07:12:12.900Z,1006.25
2019-01-20T07:13:12.862Z,1006.25
2019-01-20T07:14:12.804Z,1006.27
2019-01-20T07:15:12.775Z,1006.30
2019-01-20T07:16:12.722Z,1006.32
2019-01-20T07:17:12.688Z,1006.27
2019-01-20T07:18:12.648Z,1006.33
2019-01-20T07:19:12.603Z,1006.34
2019-01-20T07:20:12.564Z,1006.34
2019-01-20T07:21:12.524Z,1006.40
2019-01-20T07:22:12.481Z,1006.39
2019-01-20T07:23:12.435Z,1006.43
2019-01-20T07:24:12.390Z,1006.40
2019-01-20T07:25:12.355Z,1006.42
2019-01-20T07:26:12.318Z,1006.41
2019-01-20T07:27:12.278Z,1006.42
2019-01-20T07:28:12.228Z,1006.42
2019-01-20T07:29:12.187Z,1006.44
2019-01-20T07:30:12.145Z,1006.46
2019-01-20T07:31:12.105Z,1006.48
2019-01-20T07:32:12.056Z,1006.50
2019-01-20T07:33:12.020Z,1006.52
2019-01-20T07:34:11.975Z,1006.53
2019-01-20T07:35:11.939Z,1006.55
2019-01-20T07:36:11.891Z,1006.57
2019-01-20T07:37:11.847Z,1006.60
2019-01-20T07:38:11.809Z,1006.60
2019-01-20T07:39:11.776Z,1006.61
2019-01-20T07:40:11.726Z,1006.63
2019-01-20T07:41:11.680Z,1006.63
2019-01-20T07:42:11.651Z,1006.64
2019-01-20T07:43:16.780Z,1006.67
2019-01-20T07:44:11.555Z,1006.66
2019-01-20T07:45:11.519Z,1006.68
2019-01-20T07:46:11.485Z,1006.71
2019-01-20T07:47:11.430Z,1006.69
2019-01-20T07:48:11.390Z,1006.65
2019-01-20T07:49:11.355Z,1006.69
2019-01-20T07:50:11.310Z,1006.70
2019-01-20T07:51:11.280Z,1006.73
2019-01-20T07:52:11.230Z,1006.71
2019-01-20T07:53:11.180Z,1006.69
2019-01-20T07:54:11.149Z,1006.71
2019-01-20T07:55:11.163Z,1006.75
2019-01-20T07:56:11.065Z,1006.76
2019-01-20T07:57:11.024Z,1006.76
2019-01-20T07:58:10.976Z,1006.81
2019-01-20T07:59:10.935Z,1006.81
2019-01-20T08:00:10.891Z,1006.83
2019-01-20T08:01:10.853Z,1006.86
2019-01-20T08:02:10.807Z,1006.85
2019-01-20T08:03:10.770Z,1006.87
2019-01-20T08:04:10.726Z,1006.90
2019-01-20T08:05:10.682Z,1006.93
2019-01-20T08:06:10.646Z,1006.94
2019-01-20T08:07:10.605Z,1006.97
2019-01-20T08:08:10.563Z,1006.96
2019-01-20T08:09:10.527Z,1007.00
2019-01-20T08:10:10.472Z,1007.00
2019-01-20T08:11:10.427Z,1007.03
2019-01-20T08:12:10.395Z,1007.04
2019-01-20T08:13:10.355Z,1006.99
2019-01-20T08:14:10.318Z,1006.98
2019-01-20T08:15:10.268Z,1007.04
2019-01-20T08:16:10.226Z,1007.01
2019-01-20T08:17:11.351Z,1007.01
2019-01-20T08:18:10.153Z,1007.06
2019-01-20T08:19:10.105Z,1007.09
2019-01-20T08:20:10.053Z,1007.05
2019-01-20T08:21:10.016Z,1007.05
2019-01-20T08:22:09.972Z,1007.08
2019-01-20T08:23:09.935Z,1007.13
2019-01-20T08:24:09.912Z,1007.15
2019-01-20T08:25:09.895Z,1007.10
2019-01-20T08:26:09.808Z,1007.12
2019-01-20T08:27:09.768Z,1007.15
2019-01-20T08:28:09.754Z,1007.16
2019-01-20T08:29:09.683Z,1007.15
2019-01-20T08:30:09.657Z,1007.16
2019-01-20T08:31:09.611Z,1007.15
2019-01-20T08:32:09.551Z,1007.20
2019-01-20T08:33:09.517Z,1007.20
2019-01-20T08:34:09.482Z,1007.21
2019-01-20T08:35:09.442Z,1007.22
2019-01-20T08:36:09.397Z,1007.26
2019-01-20T08:37:09.346Z,1007.24
2019-01-20T08:38:09.312Z,1007.27
2019-01-20T08:39:09.284Z,1007.32
2019-01-20T08:40:09.232Z,1007.30
2019-01-20T08:41:09.196Z,1007.34
2019-01-20T08:42:09.143Z,1007.38
2019-01-20T08:43:09.112Z,1007.38
2019-01-20T08:44:09.065Z,1007.35
2019-01-20T08:45:09.018Z,1007.34
2019-01-20T08:46:08.975Z,1007.39
2019-01-20T08:47:08.943Z,1007.41
2019-01-20T08:48:08.909Z,1007.44
2019-01-20T08:49:08.893Z,1007.41
2019-01-20T08:50:08.825Z,1007.42
2019-01-20T08:51:08.783Z,1007.46
2019-01-20T08:52:08.737Z,1007.47
2019-01-20T08:53:08.697Z,1007.51
2019-01-20T08:54:08.664Z,1007.48
2019-01-20T08:55:08.657Z,1007.51
2019-01-20T08:56:08.576Z,1007.51
2019-01-20T08:57:08.529Z,1007.50
2019-01-20T08:58:08.484Z,1007.52
2019-01-20T08:59:08.444Z,1007.57
2019-01-20T09:00:08.403Z,1007.60
2019-01-20T09:01:08.358Z,1007.57
2019-01-20T09:02:08.318Z,1007.55
2019-01-20T09:03:08.290Z,1007.56
2019-01-20T09:04:08.254Z,1007.58
2019-01-20T09:05:08.208Z,1007.59
2019-01-20T09:06:08.172Z,1007.63
2019-01-20T09:07:08.110Z,1007.61
2019-01-20T09:08:08.078Z,1007.61
2019-01-20T09:09:08.034Z,1007.60
2019-01-20T09:10:07.997Z,1007.65
2019-01-20T09:11:07.945Z,1007.65
2019-01-20T09:12:07.910Z,1007.68
2019-01-20T09:13:07.872Z,1007.65
2019-01-20T09:14:07.820Z,1007.67
2019-01-20T09:15:07.790Z,1007.72
2019-01-20T09:16:07.746Z,1007.72
2019-01-20T09:17:07.700Z,1007.74
2019-01-20T09:18:07.655Z,1007.75
2019-01-20T09:19:07.624Z,1007.73
2019-01-20T09:20:07.584Z,1007.75
2019-01-20T09:21:07.541Z,1007.76
2019-01-20T09:22:07.505Z,1007.71
2019-01-20T09:23:07.459Z,1007.71
2019-01-20T09:24:07.424Z,1007.71
2019-01-20T09:25:07.370Z,1007.76
2019-01-20T09:26:07.335Z,1007.78
2019-01-20T09:27:07.300Z,1007.81
2019-01-20T09:28:07.256Z,1007.80
2019-01-20T09:29:07.212Z,1007.80
2019-01-20T09:30:07.180Z,1007.80
2019-01-20T09:31:07.137Z,1007.82
2019-01-20T09:32:07.085Z,1007.85
2019-01-20T09:33:07.046Z,1007.86
2019-01-20T09:34:07.009Z,1007.88
2019-01-20T09:35:06.975Z,1007.85
2019-01-20T09:36:06.930Z,1007.91
2019-01-20T09:37:06.886Z,1007.91
2019-01-20T09:38:06.861Z,1007.95
2019-01-20T09:39:06.805Z,1007.92
2019-01-20T09:40:06.763Z,1007.97
2019-01-20T09:41:06.737Z,1007.94
2019-01-20T09:42:06.692Z,1007.99
2019-01-20T09:43:06.670Z,1008.01
2019-01-20T09:44:06.611Z,1007.97
2019-01-20T09:45:06.562Z,1008.01
2019-01-20T09:46:06.531Z,1007.99
2019-01-20T09:47:06.480Z,1007.98
2019-01-20T09:48:06.445Z,1007.99
2019-01-20T09:49:06.401Z,1008.02
2019-01-20T09:50:06.365Z,1008.01
2019-01-20T09:51:06.320Z,1008.01
2019-01-20T09:52:06.276Z,1008.25
2019-01-20T09:53:06.246Z,1008.66
2019-01-20T09:54:06.212Z,1008.86
2019-01-20T09:55:06.165Z,1008.84
2019-01-20T09:56:06.115Z,1008.95
2019-01-20T09:57:06.082Z,1009.07
2019-01-20T09:58:06.036Z,1009.07
2019-01-20T09:59:06.014Z,1009.07
2019-01-20T10:00:05.966Z,1009.06
2019-01-20T10:01:05.950Z,1009.17
2019-01-20T10:02:05.888Z,1009.35
2019-01-20T10:03:05.862Z,1009.42
2019-01-20T10:04:05.822Z,1009.43
2019-01-20T10:05:05.793Z,1009.37
2019-01-20T10:06:05.752Z,1009.47
2019-01-20T10:07:05.717Z,1009.49
2019-01-20T10:08:05.685Z,1009.56
2019-01-20T10:09:05.646Z,1009.55
2019-01-20T10:10:05.614Z,1009.62
2019-01-20T10:11:05.623Z,1009.65
2019-01-20T10:12:05.561Z,1009.70
2019-01-20T10:13:05.517Z,1009.67
2019-01-20T10:14:05.486Z,1009.67
2019-01-20T10:15:05.447Z,1009.75
2019-01-20T10:16:05.432Z,1009.76
2019-01-20T10:17:05.399Z,1009.75
2019-01-20T10:18:05.363Z,1009.75
2019-01-20T10:19:05.338Z,1009.74
2019-01-20T10:20:05.297Z,1009.80
2019-01-20T10:21:05.262Z,1009.78
2019-01-20T10:22:05.229Z,1009.70
2019-01-20T10:23:05.207Z,1009.68
2019-01-20T10:24:05.172Z,1009.71
2019-01-20T10:25:05.145Z,1009.71
2019-01-20T10:26:05.133Z,1009.80
2019-01-20T10:27:05.099Z,1009.75
2019-01-20T10:28:05.055Z,1009.76
2019-01-20T10:29:05.019Z,1009.85
2019-01-20T10:30:04.985Z,1009.84
2019-01-20T10:31:05.992Z,1009.83
2019-01-20T10:32:04.939Z,1009.84
2019-01-20T10:33:04.903Z,1009.82
2019-01-20T10:34:04.901Z,1009.86
2019-01-20T10:35:04.848Z,1009.88
2019-01-20T10:36:04.820Z,1009.82
2019-01-20T10:37:04.793Z,1009.80
2019-01-20T10:38:04.759Z,1009.80
2019-01-20T10:39:04.733Z,1009.80
2019-01-20T10:40:04.718Z,1009.82
2019-01-20T10:41:04.677Z,1009.79
2019-01-20T10:42:04.662Z,1009.81
2019-01-20T10:43:04.627Z,1009.77
2019-01-20T10:44:04.600Z,1009.71
2019-01-20T10:45:04.568Z,1009.56
2019-01-20T10:46:04.529Z,1009.39
2019-01-20T10:47:04.515Z,1009.30
2019-01-20T10:48:04.481Z,1009.18
2019-01-20T10:49:05.331Z,1009.19
2019-01-20T10:50:04.434Z,1009.32
2019-01-20T10:51:04.414Z,1009.54
2019-01-20T10:52:04.380Z,1009.56
2019-01-20T10:53:04.351Z,1009.52
2019-01-20T10:54:04.318Z,1009.54
2019-01-20T10:55:04.294Z,1009.46
2019-01-20T10:56:04.255Z,1009.39
2019-01-20T10:57:04.234Z,1009.42
2019-01-20T10:58:04.208Z,1009.49
2019-01-20T10:59:04.170Z,1009.45
2019-01-20T11:00:04.156Z,1009.44
2019-01-20T11:01:04.118Z,1009.45
2019-01-20T11:02:04.094Z,1009.46
2019-01-20T11:03:04.056Z,1009.39
2019-01-20T11:04:04.035Z,1009.40
2019-01-20T11:05:03.996Z,1009.34
2019-01-20T11:06:03.980Z,1009.34
2019-01-20T11:07:03.949Z,1009.30
2019-01-20T11:08:03.924Z,1009.36
2019-01-20T11:09:03.917Z,1009.22
2019-01-20T11:10:03.870Z,1009.17
2019-01-20T11:11:03.841Z,1009.22
2019-01-20T11:12:03.809Z,1009.16
2019-01-20T11:13:03.789Z,1009.24
2019-01-20T11:14:09.464Z,1009.28
2019-01-20T11:15:03.731Z,1009.29
2019-01-20T11:16:03.695Z,1009.23
2019-01-20T11:17:03.674Z,1009.21
2019-01-20T11:18:03.639Z,1009.22
2019-01-20T11:19:03.614Z,1009.25
2019-01-20T11:20:03.586Z,1009.15
2019-01-20T11:21:03.566Z,1009.21
2019-01-20T11:22:03.539Z,1009.16
2019-01-20T11:23:03.508Z,1009.20
2019-01-20T11:24:03.482Z,1009.20
2019-01-20T11:25:03.444Z,1009.20
2019-01-20T11:26:03.493Z,1009.23
2019-01-20T11:27:03.404Z,1009.19
2019-01-20T11:28:03.380Z,1009.12
2019-01-20T11:29:03.338Z,1009.15
2019-01-20T11:30:03.322Z,1009.12
2019-01-20T11:31:03.284Z,1009.13
2019-01-20T11:32:03.262Z,1009.16
2019-01-20T11:33:03.236Z,1009.06
2019-01-20T11:34:03.226Z,1009.09
2019-01-20T11:35:03.180Z,1009.10
2019-01-20T11:36:03.151Z,1009.09
2019-01-20T11:37:03.126Z,1009.11
2019-01-20T11:38:03.102Z,1009.12
2019-01-20T11:39:03.079Z,1009.07
2019-01-20T11:40:03.051Z,1009.07
2019-01-20T11:41:03.032Z,1009.02
2019-01-20T11:42:02.995Z,1009.05
2019-01-20T11:43:02.969Z,1009.05
2019-01-20T11:44:02.939Z,1009.08
2019-01-20T11:45:02.913Z,1009.10
2019-01-20T11:46:02.882Z,1009.05
2019-01-20T11:47:02.856Z,1009.12
2019-01-20T11:48:02.829Z,1009.08
2019-01-20T11:49:02.806Z,1009.11
2019-01-20T11:50:02.782Z,1009.09
2019-01-20T11:51:02.748Z,1009.09
2019-01-20T11:52:02.725Z,1009.08
2019-01-20T11:53:02.692Z,1009.09
2019-01-20T11:54:02.672Z,1009.10
2019-01-20T11:55:02.637Z,1009.11
2019-01-20T11:56:02.616Z,1009.05
2019-01-20T11:57:02.588Z,1009.00
2019-01-20T11:58:02.564Z,1009.02
2019-01-20T11:59:02.536Z,1008.94
2019-01-20T12:00:02.518Z,1008.98
2019-01-20T12:01:02.472Z,1008.95
2019-01-20T12:02:02.457Z,1009.04
2019-01-20T12:03:02.426Z,1009.11
2019-01-20T12:04:02.400Z,1009.06
2019-01-20T12:05:02.374Z,1009.07